createdAt,value
2022-09-24T00:00:27.253Z,3.00
2022-09-24T00:01:27.366Z,2.60
2022-09-24T00:02:27.271Z,2.10
2022-09-24T00:03:27.563Z,3.40
2022-09-24T00:04:27.228Z,3.30
2022-09-24T00:05:27.203Z,3.10
2022-09-24T00:06:27.201Z,2.40
2022-09-24T00:07:27.161Z,3.00
2022-09-24T00:08:27.586Z,2.10
2022-09-24T00:09:27.130Z,2.60
2022-09-24T00:10:27.131Z,3.00
2022-09-24T00:11:27.112Z,2.10
2022-09-24T00:12:27.108Z,2.30
2022-09-24T00:13:27.510Z,2.60
2022-09-24T00:14:27.079Z,2.30
2022-09-24T00:15:27.061Z,2.70
2022-09-24T00:16:27.120Z,2.50
2022-09-24T00:17:27.029Z,2.00
2022-09-24T00:18:27.402Z,3.10
2022-09-24T00:19:27.009Z,2.50
2022-09-24T00:20:26.998Z,2.20
2022-09-24T00:21:26.979Z,2.00
2022-09-24T00:22:26.976Z,2.20
2022-09-24T00:23:27.377Z,2.40
2022-09-24T00:24:26.938Z,1.70
2022-09-24T00:25:26.944Z,2.10
2022-09-24T00:26:26.925Z,2.20
2022-09-24T00:27:26.906Z,2.90
2022-09-24T00:28:27.206Z,2.40
2022-09-24T00:29:26.876Z,2.50
2022-09-24T00:30:26.869Z,2.40
2022-09-24T00:31:26.923Z,2.70
2022-09-24T00:32:26.837Z,2.00
2022-09-24T00:33:27.192Z,2.60
2022-09-24T00:34:26.823Z,2.50
2022-09-24T00:35:26.812Z,2.00
2022-09-24T00:36:26.784Z,2.50
2022-09-24T00:37:26.775Z,3.30
2022-09-24T00:38:27.196Z,3.20
2022-09-24T00:39:26.753Z,2.70
2022-09-24T00:40:26.764Z,3.40
2022-09-24T00:41:26.736Z,2.70
2022-09-24T00:42:26.713Z,2.00
2022-09-24T00:43:26.712Z,3.20
2022-09-24T00:44:27.116Z,2.00
2022-09-24T00:45:26.673Z,2.90
2022-09-24T00:46:26.736Z,2.90
2022-09-24T00:47:26.652Z,3.90
2022-09-24T00:48:26.641Z,2.40
2022-09-24T00:49:27.004Z,3.60
2022-09-24T00:50:26.627Z,2.80
2022-09-24T00:51:26.593Z,2.40
2022-09-24T00:52:26.591Z,3.80
2022-09-24T00:53:26.579Z,2.80
2022-09-24T00:54:26.979Z,3.70
2022-09-24T00:55:26.558Z,3.30
2022-09-24T00:56:26.541Z,4.20
2022-09-24T00:57:26.521Z,2.50
2022-09-24T00:58:33.500Z,2.80
2022-09-24T00:59:33.878Z,3.90
2022-09-24T01:00:26.562Z,1.90
2022-09-24T01:01:26.529Z,2.60
2022-09-24T01:02:26.499Z,2.10
2022-09-24T01:03:33.445Z,2.90
2022-09-24T01:04:26.775Z,4.00
2022-09-24T01:05:26.417Z,4.00
2022-09-24T01:06:26.413Z,3.10
2022-09-24T01:07:26.414Z,4.30
2022-09-24T01:08:26.383Z,3.40
2022-09-24T01:09:26.825Z,2.40
2022-09-24T01:10:26.354Z,3.70
2022-09-24T01:11:26.344Z,3.00
2022-09-24T01:12:26.330Z,3.50
2022-09-24T01:13:26.315Z,3.30
2022-09-24T01:14:26.715Z,3.30
2022-09-24T01:15:26.293Z,3.80
2022-09-24T01:16:26.336Z,3.40
2022-09-24T01:17:26.266Z,3.40
2022-09-24T01:18:26.250Z,3.50
2022-09-24T01:19:26.591Z,4.10
2022-09-24T01:20:26.221Z,3.30
2022-09-24T01:21:26.212Z,2.90
2022-09-24T01:22:26.193Z,2.50
2022-09-24T01:23:26.184Z,3.50
2022-09-24T01:24:26.610Z,2.50
2022-09-24T01:25:26.161Z,2.20
2022-09-24T01:26:26.149Z,3.30
2022-09-24T01:27:26.133Z,3.40
2022-09-24T01:28:26.120Z,2.10
2022-09-24T01:29:26.522Z,2.70
2022-09-24T01:30:26.100Z,2.00
2022-09-24T01:31:26.139Z,3.10
2022-09-24T01:32:31.597Z,3.60
2022-09-24T01:33:27.061Z,2.60
2022-09-24T01:34:26.376Z,2.80
2022-09-24T01:35:26.037Z,2.50
2022-09-24T01:36:26.016Z,3.00
2022-09-24T01:37:26.006Z,2.60
2022-09-24T01:38:25.986Z,2.90
2022-09-24T01:39:26.409Z,2.90
2022-09-24T01:40:25.994Z,3.80
2022-09-24T01:41:25.953Z,3.80
2022-09-24T01:42:25.948Z,2.70
2022-09-24T01:43:25.936Z,4.50
2022-09-24T01:44:26.267Z,2.70
2022-09-24T01:45:25.897Z,4.10
2022-09-24T01:46:25.969Z,2.80
2022-09-24T01:47:26.055Z,2.80
2022-09-24T01:48:25.856Z,2.80
2022-09-24T01:49:26.279Z,2.60
2022-09-24T01:50:25.838Z,3.40
2022-09-24T01:51:25.813Z,2.60
2022-09-24T01:52:25.802Z,3.10
2022-09-24T01:53:25.802Z,3.00
2022-09-24T01:54:26.196Z,2.30
2022-09-24T01:55:25.770Z,3.50
2022-09-24T01:56:25.762Z,3.50
2022-09-24T01:57:25.742Z,3.20
2022-09-24T01:58:25.732Z,2.70
2022-09-24T01:59:26.081Z,3.50
2022-09-24T02:00:25.703Z,3.60
2022-09-24T02:01:25.754Z,3.50
2022-09-24T02:02:25.710Z,3.60
2022-09-24T02:03:25.662Z,3.00
2022-09-24T02:04:26.081Z,2.50
2022-09-24T02:05:25.637Z,4.10
2022-09-24T02:06:25.628Z,3.70
2022-09-24T02:07:25.631Z,3.00
2022-09-24T02:08:25.597Z,3.40
2022-09-24T02:09:25.967Z,3.60
2022-09-24T02:10:25.569Z,3.60
2022-09-24T02:11:25.569Z,3.90
2022-09-24T02:12:25.539Z,3.30
2022-09-24T02:13:25.543Z,2.90
2022-09-24T02:14:25.849Z,2.90
2022-09-24T02:15:28.941Z,3.10
2022-09-24T02:16:26.541Z,3.90
2022-09-24T02:17:25.488Z,2.90
2022-09-24T02:18:25.480Z,2.90
2022-09-24T02:19:25.887Z,2.70
2022-09-24T02:20:25.443Z,3.80
2022-09-24T02:21:25.430Z,3.10
2022-09-24T02:22:25.431Z,2.30
2022-09-24T02:23:25.407Z,2.70
2022-09-24T02:24:25.386Z,2.60
2022-09-24T02:25:25.802Z,3.70
2022-09-24T02:26:25.365Z,4.10
2022-09-24T02:27:25.358Z,2.80
2022-09-24T02:28:25.345Z,3.70
2022-09-24T02:29:25.665Z,2.60
2022-09-24T02:30:25.337Z,3.00
2022-09-24T02:31:25.362Z,3.30
2022-09-24T02:32:25.294Z,4.50
2022-09-24T02:33:25.280Z,2.90
2022-09-24T02:34:25.277Z,2.80
2022-09-24T02:35:25.671Z,3.20
2022-09-24T02:36:25.251Z,4.20
2022-09-24T02:37:25.229Z,4.70
2022-09-24T02:38:25.222Z,3.50
2022-09-24T02:39:25.552Z,2.90
2022-09-24T02:40:25.230Z,3.50
2022-09-24T02:41:25.175Z,4.20
2022-09-24T02:42:25.157Z,3.70
2022-09-24T02:43:25.148Z,3.20
2022-09-24T02:44:25.137Z,2.50
2022-09-24T02:45:25.540Z,3.50
2022-09-24T02:46:25.162Z,3.20
2022-09-24T02:47:25.080Z,3.10
2022-09-24T02:48:25.072Z,3.80
2022-09-24T02:49:25.466Z,3.30
2022-09-24T02:50:25.051Z,3.10
2022-09-24T02:51:25.029Z,3.30
2022-09-24T02:52:25.020Z,2.60
2022-09-24T02:53:25.010Z,3.50
2022-09-24T02:54:24.998Z,2.80
2022-09-24T02:55:25.348Z,3.30
2022-09-24T02:56:24.969Z,3.30
2022-09-24T02:57:24.958Z,3.20
2022-09-24T02:58:24.941Z,3.70
2022-09-24T02:59:25.364Z,3.30
2022-09-24T03:00:24.918Z,3.50
2022-09-24T03:01:24.972Z,4.00
2022-09-24T03:02:24.984Z,3.50
2022-09-24T03:03:24.885Z,3.70
2022-09-24T03:04:25.283Z,3.20
2022-09-24T03:05:24.853Z,3.50
2022-09-24T03:06:24.849Z,2.90
2022-09-24T03:07:24.835Z,3.20
2022-09-24T03:08:24.811Z,2.80
2022-09-24T03:09:25.188Z,3.00
2022-09-24T03:10:24.793Z,3.70
2022-09-24T03:11:24.774Z,4.60
2022-09-24T03:12:24.775Z,2.90
2022-09-24T03:13:24.749Z,2.90
2022-09-24T03:14:25.164Z,3.80
2022-09-24T03:15:24.723Z,3.30
2022-09-24T03:16:24.808Z,4.30
2022-09-24T03:17:24.703Z,3.00
2022-09-24T03:18:24.690Z,3.80
2022-09-24T03:19:25.114Z,2.80
2022-09-24T03:20:24.653Z,4.00
2022-09-24T03:21:24.669Z,3.90
2022-09-24T03:22:24.644Z,3.50
2022-09-24T03:23:24.618Z,3.00
2022-09-24T03:24:24.993Z,3.40
2022-09-24T03:25:24.590Z,3.40
2022-09-24T03:26:24.575Z,3.10
2022-09-24T03:27:24.578Z,2.70
2022-09-24T03:28:24.547Z,2.90
2022-09-24T03:29:24.970Z,3.90
2022-09-24T03:30:24.520Z,2.50
2022-09-24T03:31:24.599Z,3.80
2022-09-24T03:32:24.500Z,3.30
2022-09-24T03:33:24.907Z,3.70
2022-09-24T03:34:31.475Z,3.10
2022-09-24T03:35:31.462Z,3.20
2022-09-24T03:36:31.438Z,4.00
2022-09-24T03:37:24.430Z,3.50
2022-09-24T03:38:24.408Z,4.20
2022-09-24T03:39:24.787Z,2.60
2022-09-24T03:40:24.429Z,2.90
2022-09-24T03:41:24.379Z,2.90
2022-09-24T03:42:24.367Z,2.50
2022-09-24T03:43:24.368Z,2.60
2022-09-24T03:44:24.768Z,3.20
2022-09-24T03:45:24.338Z,3.60
2022-09-24T03:46:24.376Z,4.20
2022-09-24T03:47:24.303Z,3.90
2022-09-24T03:48:24.299Z,3.60
2022-09-24T03:49:24.716Z,2.90
2022-09-24T03:50:24.256Z,3.40
2022-09-24T03:51:24.255Z,3.40
2022-09-24T03:52:24.235Z,2.70
2022-09-24T03:53:24.235Z,3.20
2022-09-24T03:54:24.642Z,3.60
2022-09-24T03:55:24.207Z,3.20
2022-09-24T03:56:24.183Z,3.50
2022-09-24T03:57:24.183Z,3.00
2022-09-24T03:58:24.162Z,3.40
2022-09-24T03:59:24.505Z,3.20
2022-09-24T04:00:24.160Z,3.90
2022-09-24T04:01:24.183Z,3.70
2022-09-24T04:02:24.147Z,3.70
2022-09-24T04:03:24.222Z,3.40
2022-09-24T04:04:24.514Z,2.90
2022-09-24T04:05:24.071Z,3.00
2022-09-24T04:06:26.045Z,3.80
2022-09-24T04:07:24.052Z,3.10
2022-09-24T04:08:24.031Z,2.90
2022-09-24T04:09:24.471Z,4.00
2022-09-24T04:10:24.019Z,3.00
2022-09-24T04:11:24.003Z,3.30
2022-09-24T04:12:23.984Z,3.40
2022-09-24T04:13:23.978Z,4.10
2022-09-24T04:14:24.389Z,3.00
2022-09-24T04:15:23.949Z,2.80
2022-09-24T04:16:24.044Z,2.70
2022-09-24T04:17:23.918Z,3.30
2022-09-24T04:18:23.900Z,4.10
2022-09-24T04:19:24.223Z,3.00
2022-09-24T04:20:23.879Z,2.60
2022-09-24T04:21:23.869Z,3.00
2022-09-24T04:22:23.851Z,3.20
2022-09-24T04:23:23.837Z,4.30
2022-09-24T04:24:23.831Z,3.50
2022-09-24T04:25:24.127Z,3.50
2022-09-24T04:26:23.798Z,3.20
2022-09-24T04:27:23.789Z,4.00
2022-09-24T04:28:23.779Z,2.70
2022-09-24T04:29:24.196Z,2.80
2022-09-24T04:30:23.754Z,2.90
2022-09-24T04:31:23.861Z,2.90
2022-09-24T04:32:23.732Z,3.70
2022-09-24T04:33:23.705Z,4.00
2022-09-24T04:34:23.697Z,2.60
2022-09-24T04:35:24.113Z,3.80
2022-09-24T04:36:23.675Z,3.60
2022-09-24T04:37:23.657Z,3.70
2022-09-24T04:38:23.646Z,2.80
2022-09-24T04:39:24.077Z,3.70
2022-09-24T04:40:23.676Z,3.20
2022-09-24T04:41:23.606Z,3.30
2022-09-24T04:42:23.593Z,4.80
2022-09-24T04:43:23.575Z,3.00
2022-09-24T04:44:23.599Z,3.00
2022-09-24T04:45:23.873Z,3.10
2022-09-24T04:46:23.615Z,2.80
2022-09-24T04:47:23.532Z,2.50
2022-09-24T04:48:23.513Z,3.10
2022-09-24T04:49:23.829Z,3.30
2022-09-24T04:50:23.487Z,3.20
2022-09-24T04:51:23.472Z,3.10
2022-09-24T04:52:23.461Z,3.50
2022-09-24T04:53:23.441Z,3.30
2022-09-24T04:54:23.442Z,3.10
2022-09-24T04:55:23.860Z,5.70
2022-09-24T04:56:23.413Z,4.90
2022-09-24T04:57:23.398Z,3.20
2022-09-24T04:58:23.392Z,2.70
2022-09-24T04:59:23.818Z,3.70
2022-09-24T05:00:23.359Z,3.40
2022-09-24T05:01:23.385Z,3.00
2022-09-24T05:02:23.436Z,3.70
2022-09-24T05:03:23.327Z,3.40
2022-09-24T05:04:23.310Z,3.40
2022-09-24T05:05:23.692Z,3.20
2022-09-24T05:06:23.279Z,3.00
2022-09-24T05:07:23.286Z,3.10
2022-09-24T05:08:23.260Z,2.70
2022-09-24T05:09:23.699Z,3.00
2022-09-24T05:10:23.228Z,2.80
2022-09-24T05:11:23.215Z,2.90
2022-09-24T05:12:23.215Z,3.00
2022-09-24T05:13:23.187Z,3.20
2022-09-24T05:14:23.176Z,3.30
2022-09-24T05:15:23.538Z,3.70
2022-09-24T05:16:23.412Z,3.20
2022-09-24T05:17:23.134Z,3.20
2022-09-24T05:18:23.126Z,2.50
2022-09-24T05:19:23.428Z,3.10
2022-09-24T05:20:23.103Z,3.30
2022-09-24T05:21:23.082Z,3.80
2022-09-24T05:22:23.077Z,3.00
2022-09-24T05:23:23.054Z,3.70
2022-09-24T05:24:23.054Z,2.60
2022-09-24T05:25:23.425Z,3.80
2022-09-24T05:26:23.033Z,3.00
2022-09-24T05:27:23.006Z,2.90
2022-09-24T05:28:22.999Z,3.40
2022-09-24T05:29:23.412Z,4.20
2022-09-24T05:30:22.972Z,3.00
2022-09-24T05:31:22.997Z,3.70
2022-09-24T05:32:22.951Z,2.90
2022-09-24T05:33:22.931Z,3.80
2022-09-24T05:34:22.932Z,4.20
2022-09-24T05:35:23.404Z,2.80
2022-09-24T05:36:22.901Z,3.70
2022-09-24T05:37:22.887Z,2.50
2022-09-24T05:38:22.869Z,3.10
2022-09-24T05:39:23.199Z,3.50
2022-09-24T05:40:22.903Z,3.30
2022-09-24T05:41:22.831Z,3.00
2022-09-24T05:42:22.822Z,2.90
2022-09-24T05:43:22.810Z,3.40
2022-09-24T05:44:23.179Z,3.30
2022-09-24T05:45:22.781Z,3.30
2022-09-24T05:46:22.827Z,3.20
2022-09-24T05:47:22.751Z,2.60
2022-09-24T05:48:22.849Z,2.80
2022-09-24T05:49:23.158Z,2.30
2022-09-24T05:50:22.723Z,2.80
2022-09-24T05:51:22.707Z,3.50
2022-09-24T05:52:22.724Z,3.10
2022-09-24T05:53:22.676Z,2.50
2022-09-24T05:54:22.987Z,4.20
2022-09-24T05:55:22.667Z,3.50
2022-09-24T05:56:22.647Z,2.80
2022-09-24T05:57:22.640Z,3.40
2022-09-24T05:58:22.629Z,3.30
2022-09-24T05:59:22.975Z,4.20
2022-09-24T06:00:22.586Z,4.40
2022-09-24T06:01:22.845Z,3.50
2022-09-24T06:02:22.659Z,3.00
2022-09-24T06:03:22.626Z,2.30
2022-09-24T06:04:22.976Z,2.40
2022-09-24T06:05:22.596Z,2.90
2022-09-24T06:06:22.522Z,2.70
2022-09-24T06:07:22.503Z,3.60
2022-09-24T06:08:22.487Z,2.70
2022-09-24T06:09:22.845Z,4.00
2022-09-24T06:10:22.571Z,2.80
2022-09-24T06:11:22.467Z,3.70
2022-09-24T06:12:22.443Z,3.10
2022-09-24T06:13:22.428Z,2.80
2022-09-24T06:14:22.849Z,3.00
2022-09-24T06:15:22.391Z,3.00
2022-09-24T06:16:22.480Z,3.20
2022-09-24T06:17:22.372Z,2.80
2022-09-24T06:18:22.375Z,3.00
2022-09-24T06:19:22.738Z,3.00
2022-09-24T06:20:22.355Z,2.90
2022-09-24T06:21:22.321Z,2.90
2022-09-24T06:22:26.285Z,3.50
2022-09-24T06:23:23.304Z,3.40
2022-09-24T06:24:22.281Z,2.80
2022-09-24T06:25:22.474Z,2.80
2022-09-24T06:26:22.261Z,2.70
2022-09-24T06:27:22.249Z,3.20
2022-09-24T06:28:22.230Z,2.90
2022-09-24T06:29:22.573Z,3.20
2022-09-24T06:30:22.211Z,2.70
2022-09-24T06:31:22.244Z,3.30
2022-09-24T06:32:22.178Z,2.60
2022-09-24T06:33:22.170Z,3.50
2022-09-24T06:34:22.157Z,2.80
2022-09-24T06:35:22.177Z,4.50
2022-09-24T06:36:22.127Z,2.90
2022-09-24T06:37:22.119Z,2.80
2022-09-24T06:38:22.098Z,2.50
2022-09-24T06:39:22.517Z,2.70
2022-09-24T06:40:22.164Z,2.70
2022-09-24T06:41:22.056Z,2.80
2022-09-24T06:42:22.044Z,2.80
2022-09-24T06:43:22.042Z,3.30
2022-09-24T06:44:22.038Z,3.40
2022-09-24T06:45:22.358Z,3.10
2022-09-24T06:46:22.045Z,3.60
2022-09-24T06:47:21.987Z,3.00
2022-09-24T06:48:21.975Z,3.20
2022-09-24T06:49:22.313Z,3.00
2022-09-24T06:50:21.946Z,3.50
2022-09-24T06:51:21.933Z,5.40
2022-09-24T06:52:21.915Z,3.20
2022-09-24T06:53:21.908Z,3.10
2022-09-24T06:54:21.895Z,2.50
2022-09-24T06:55:22.315Z,2.90
2022-09-24T06:56:21.877Z,4.40
2022-09-24T06:57:26.586Z,4.10
2022-09-24T06:58:22.853Z,4.90
2022-09-24T06:59:22.153Z,3.90
2022-09-24T07:00:21.810Z,3.50
2022-09-24T07:01:21.864Z,4.00
2022-09-24T07:02:21.941Z,2.70
2022-09-24T07:03:21.778Z,3.10
2022-09-24T07:04:21.763Z,3.20
2022-09-24T07:05:22.072Z,2.70
2022-09-24T07:06:21.743Z,2.80
2022-09-24T07:07:21.725Z,3.00
2022-09-24T07:08:21.722Z,3.40
2022-09-24T07:09:22.104Z,2.70
2022-09-24T07:10:21.692Z,2.70
2022-09-24T07:11:21.673Z,2.90
2022-09-24T07:12:21.671Z,3.00
2022-09-24T07:13:21.655Z,3.80
2022-09-24T07:14:21.992Z,3.50
2022-09-24T07:15:21.637Z,3.20
2022-09-24T07:16:21.632Z,2.50
2022-09-24T07:17:21.600Z,2.40
2022-09-24T07:18:21.584Z,3.60
2022-09-24T07:19:21.609Z,2.90
2022-09-24T07:20:21.563Z,3.50
2022-09-24T07:21:21.540Z,2.50
2022-09-24T07:22:21.569Z,4.10
2022-09-24T07:23:21.512Z,3.10
2022-09-24T07:24:21.861Z,4.10
2022-09-24T07:25:21.501Z,2.80
2022-09-24T07:26:21.481Z,3.70
2022-09-24T07:27:21.487Z,2.50
2022-09-24T07:28:21.445Z,2.80
2022-09-24T07:29:21.438Z,2.80
2022-09-24T07:30:21.792Z,3.00
2022-09-24T07:31:21.452Z,2.80
2022-09-24T07:32:24.009Z,2.60
2022-09-24T07:33:21.375Z,2.40
2022-09-24T07:34:21.375Z,2.30
2022-09-24T07:35:21.377Z,3.30
2022-09-24T07:36:21.347Z,3.40
2022-09-24T07:37:21.319Z,4.10
2022-09-24T07:38:21.316Z,3.60
2022-09-24T07:39:21.297Z,2.70
2022-09-24T07:40:21.662Z,2.90
2022-09-24T07:41:21.273Z,3.10
2022-09-24T07:42:21.257Z,3.20
2022-09-24T07:43:21.246Z,2.70
2022-09-24T07:44:21.236Z,3.40
2022-09-24T07:45:21.556Z,3.60
2022-09-24T07:46:21.267Z,2.50
2022-09-24T07:47:21.205Z,2.80
2022-09-24T07:48:21.183Z,3.30
2022-09-24T07:49:21.165Z,3.80
2022-09-24T07:50:21.215Z,3.10
2022-09-24T07:51:21.133Z,2.90
2022-09-24T07:52:21.115Z,3.00
2022-09-24T07:53:21.147Z,2.40
2022-09-24T07:54:21.102Z,3.00
2022-09-24T07:55:21.073Z,2.60
2022-09-24T07:56:21.433Z,2.30
2022-09-24T07:57:21.062Z,2.80
2022-09-24T07:58:21.049Z,2.50
2022-09-24T07:59:21.035Z,3.40
2022-09-24T08:00:21.021Z,2.00
2022-09-24T08:01:21.500Z,2.90
2022-09-24T08:02:20.992Z,3.60
2022-09-24T08:03:21.018Z,2.60
2022-09-24T08:04:21.025Z,4.00
2022-09-24T08:05:20.958Z,2.60
2022-09-24T08:06:21.269Z,2.90
2022-09-24T08:07:20.924Z,2.80
2022-09-24T08:08:20.911Z,3.60
2022-09-24T08:09:20.903Z,2.90
2022-09-24T08:10:20.888Z,3.20
2022-09-24T08:11:21.313Z,3.00
2022-09-24T08:12:20.885Z,3.30
2022-09-24T08:13:24.039Z,2.50
2022-09-24T08:14:21.831Z,2.70
2022-09-24T08:15:20.821Z,2.60
2022-09-24T08:16:21.337Z,2.70
2022-09-24T08:17:20.792Z,3.10
2022-09-24T08:18:20.780Z,3.80
2022-09-24T08:19:20.770Z,2.70
2022-09-24T08:20:20.830Z,2.90
2022-09-24T08:21:21.060Z,3.50
2022-09-24T08:22:20.727Z,4.00
2022-09-24T08:23:20.723Z,3.10
2022-09-24T08:24:20.703Z,3.10
2022-09-24T08:25:20.690Z,3.80
2022-09-24T08:26:21.079Z,2.70
2022-09-24T08:27:20.665Z,3.80
2022-09-24T08:28:20.651Z,2.70
2022-09-24T08:29:20.647Z,3.50
2022-09-24T08:30:20.685Z,3.00
2022-09-24T08:31:20.664Z,3.20
2022-09-24T08:32:20.591Z,3.00
2022-09-24T08:33:20.588Z,2.30
2022-09-24T08:34:20.626Z,4.10
2022-09-24T08:35:20.560Z,2.50
2022-09-24T08:36:20.923Z,3.60
2022-09-24T08:37:20.528Z,2.70
2022-09-24T08:38:20.517Z,2.90
2022-09-24T08:39:20.517Z,3.50
2022-09-24T08:40:20.601Z,3.90
2022-09-24T08:41:20.907Z,4.30
2022-09-24T08:42:20.470Z,3.10
2022-09-24T08:43:20.459Z,3.10
2022-09-24T08:44:20.432Z,3.00
2022-09-24T08:45:20.427Z,2.50
2022-09-24T08:46:20.922Z,2.90
2022-09-24T08:47:20.406Z,3.10
2022-09-24T08:48:20.385Z,2.70
2022-09-24T08:49:20.369Z,3.50
2022-09-24T08:50:27.347Z,2.80
2022-09-24T08:51:32.765Z,4.20
2022-09-24T08:52:21.325Z,3.60
2022-09-24T08:53:20.312Z,2.90
2022-09-24T08:54:20.324Z,3.20
2022-09-24T08:55:20.296Z,2.90
2022-09-24T08:56:20.732Z,2.60
2022-09-24T08:57:20.263Z,3.10
2022-09-24T08:58:20.256Z,2.50
2022-09-24T08:59:20.252Z,3.30
2022-09-24T09:00:20.233Z,2.50
2022-09-24T09:01:20.719Z,3.00
2022-09-24T09:02:20.297Z,2.60
2022-09-24T09:03:20.196Z,3.10
2022-09-24T09:04:20.171Z,3.60
2022-09-24T09:05:20.180Z,3.00
2022-09-24T09:06:20.453Z,3.10
2022-09-24T09:07:20.140Z,3.00
2022-09-24T09:08:45.143Z,3.50
2022-09-24T09:09:21.332Z,3.20
2022-09-24T09:10:20.101Z,3.40
2022-09-24T09:11:20.594Z,2.90
2022-09-24T09:12:20.090Z,3.00
2022-09-24T09:13:20.059Z,2.60
2022-09-24T09:14:20.051Z,2.80
2022-09-24T09:15:20.022Z,3.10
2022-09-24T09:16:20.534Z,3.50
2022-09-24T09:17:20.005Z,3.30
2022-09-24T09:18:19.988Z,3.20
2022-09-24T09:19:19.992Z,3.10
2022-09-24T09:20:19.970Z,2.60
2022-09-24T09:21:20.373Z,2.50
2022-09-24T09:22:19.942Z,2.10
2022-09-24T09:23:19.934Z,2.30
2022-09-24T09:24:19.903Z,2.80
2022-09-24T09:25:19.941Z,2.00
2022-09-24T09:26:20.225Z,2.30
2022-09-24T09:27:19.870Z,2.80
2022-09-24T09:28:19.878Z,2.40
2022-09-24T09:29:19.851Z,2.60
2022-09-24T09:30:19.824Z,2.50
2022-09-24T09:31:19.934Z,1.70
2022-09-24T09:32:20.120Z,2.60
2022-09-24T09:33:19.799Z,2.50
2022-09-24T09:34:19.781Z,2.40
2022-09-24T09:35:19.779Z,2.80
2022-09-24T09:36:19.751Z,2.30
2022-09-24T09:37:25.527Z,2.00
2022-09-24T09:38:20.721Z,2.50
2022-09-24T09:39:19.720Z,2.10
2022-09-24T09:40:19.772Z,2.40
2022-09-24T09:41:19.686Z,2.30
2022-09-24T09:42:19.799Z,2.50
2022-09-24T09:43:19.653Z,2.70
2022-09-24T09:44:19.640Z,2.70
2022-09-24T09:45:23.002Z,2.50
2022-09-24T09:46:20.697Z,2.20
2022-09-24T09:47:20.059Z,2.30
2022-09-24T09:48:19.586Z,1.90
2022-09-24T09:49:19.592Z,2.10
2022-09-24T09:50:19.571Z,1.80
2022-09-24T09:51:22.407Z,2.10
2022-09-24T09:52:19.869Z,1.70
2022-09-24T09:53:19.552Z,2.20
2022-09-24T09:54:19.520Z,1.90
2022-09-24T09:55:19.500Z,2.40
2022-09-24T09:56:19.515Z,2.20
2022-09-24T09:57:19.906Z,2.10
2022-09-24T09:58:19.469Z,2.10
2022-09-24T09:59:19.460Z,2.40
2022-09-24T10:00:19.429Z,2.10
2022-09-24T10:01:19.429Z,2.20
2022-09-24T10:02:19.787Z,1.60
2022-09-24T10:03:19.451Z,2.00
2022-09-24T10:04:19.378Z,2.10
2022-09-24T10:05:22.201Z,2.00
2022-09-24T10:06:20.349Z,1.90
2022-09-24T10:07:19.759Z,2.00
2022-09-24T10:08:19.330Z,1.70
2022-09-24T10:09:19.318Z,2.00
2022-09-24T10:10:19.308Z,2.00
2022-09-24T10:11:19.289Z,2.10
2022-09-24T10:12:19.372Z,2.10
2022-09-24T10:13:19.260Z,2.10
2022-09-24T10:14:19.259Z,1.90
2022-09-24T10:15:19.240Z,2.00
2022-09-24T10:16:19.284Z,2.10
2022-09-24T10:17:19.580Z,2.70
2022-09-24T10:18:19.201Z,2.00
2022-09-24T10:19:19.196Z,2.10
2022-09-24T10:20:19.171Z,1.80
2022-09-24T10:21:19.158Z,1.90
2022-09-24T10:22:19.490Z,2.00
2022-09-24T10:23:19.153Z,1.80
2022-09-24T10:24:19.120Z,1.90
2022-09-24T10:25:19.159Z,1.60
2022-09-24T10:26:19.097Z,1.80
2022-09-24T10:27:19.388Z,2.10
2022-09-24T10:28:19.054Z,1.80
2022-09-24T10:29:19.047Z,1.40
2022-09-24T10:30:19.056Z,1.70
2022-09-24T10:31:19.097Z,1.30
2022-09-24T10:32:19.057Z,1.70
2022-09-24T10:33:19.005Z,1.30
2022-09-24T10:34:18.981Z,1.30
2022-09-24T10:35:19.000Z,1.30
2022-09-24T10:36:18.957Z,1.40
2022-09-24T10:37:19.003Z,1.20
2022-09-24T10:38:18.966Z,1.00
2022-09-24T10:39:18.925Z,1.30
2022-09-24T10:40:27.005Z,1.10
2022-09-24T10:41:25.914Z,2.10
2022-09-24T10:42:25.919Z,1.40
2022-09-24T10:43:18.868Z,1.30
2022-09-24T10:44:18.846Z,1.80
2022-09-24T10:45:18.848Z,1.20
2022-09-24T10:46:18.848Z,1.20
2022-09-24T10:47:18.847Z,1.20
2022-09-24T10:48:18.809Z,1.10
2022-09-24T10:49:18.923Z,1.30
2022-09-24T10:50:18.788Z,1.30
2022-09-24T10:51:18.769Z,1.10
2022-09-24T10:52:19.058Z,0.90
2022-09-24T10:53:18.729Z,1.20
2022-09-24T10:54:18.721Z,1.30
2022-09-24T10:55:18.706Z,1.60
2022-09-24T10:56:18.686Z,1.70
2022-09-24T10:57:19.069Z,0.80
2022-09-24T10:58:18.667Z,0.90
2022-09-24T10:59:18.667Z,1.30
2022-09-24T11:00:18.646Z,1.10
2022-09-24T11:01:18.706Z,1.20
2022-09-24T11:02:18.757Z,1.00
2022-09-24T11:03:18.724Z,0.90
2022-09-24T11:04:18.607Z,1.00
2022-09-24T11:05:18.581Z,1.10
2022-09-24T11:06:18.578Z,0.80
2022-09-24T11:07:18.984Z,1.00
2022-09-24T11:08:18.546Z,1.00
2022-09-24T11:09:18.547Z,1.00
2022-09-24T11:10:18.516Z,1.00
2022-09-24T11:11:18.507Z,1.20
2022-09-24T11:12:18.506Z,0.90
2022-09-24T11:13:18.919Z,1.80
2022-09-24T11:14:18.476Z,1.40
2022-09-24T11:15:18.446Z,1.10
2022-09-24T11:16:18.474Z,1.00
2022-09-24T11:17:18.426Z,1.10
2022-09-24T11:18:18.443Z,1.10
2022-09-24T11:19:18.407Z,1.40
2022-09-24T11:20:18.376Z,1.20
2022-09-24T11:21:18.365Z,1.10
2022-09-24T11:22:18.367Z,1.00
2022-09-24T11:23:18.673Z,0.70
2022-09-24T11:24:19.206Z,1.20
2022-09-24T11:25:18.317Z,1.10
2022-09-24T11:26:18.394Z,1.00
2022-09-24T11:27:18.294Z,1.00
2022-09-24T11:28:18.365Z,1.40
2022-09-24T11:29:25.278Z,1.50
2022-09-24T11:30:18.241Z,0.80
2022-09-24T11:31:25.342Z,2.50
2022-09-24T11:32:25.234Z,10.80
2022-09-24T11:33:22.712Z,3.80
2022-09-24T11:34:18.188Z,5.80
2022-09-24T11:35:18.176Z,2.80
2022-09-24T11:36:18.166Z,3.70
2022-09-24T11:37:18.177Z,1.10
2022-09-24T11:38:18.183Z,1.30
2022-09-24T11:39:18.129Z,1.50
2022-09-24T11:40:18.153Z,1.60
2022-09-24T11:41:18.116Z,2.70
2022-09-24T11:42:18.085Z,2.80
2022-09-24T11:43:18.524Z,1.40
2022-09-24T11:44:18.064Z,1.60
2022-09-24T11:45:18.062Z,1.10
2022-09-24T11:46:18.077Z,1.30
2022-09-24T11:47:18.034Z,1.30
2022-09-24T11:48:18.327Z,1.10
2022-09-24T11:49:18.021Z,1.10
2022-09-24T11:50:17.996Z,0.80
2022-09-24T11:51:17.977Z,0.90
2022-09-24T11:52:17.956Z,0.80
2022-09-24T11:53:18.227Z,1.00
2022-09-24T11:54:17.935Z,1.80
2022-09-24T11:55:17.924Z,1.20
2022-09-24T11:56:17.908Z,0.90
2022-09-24T11:57:17.894Z,1.40
2022-09-24T11:58:18.316Z,1.00
2022-09-24T11:59:17.862Z,0.90
2022-09-24T12:00:17.914Z,1.10
2022-09-24T12:01:17.854Z,0.80
2022-09-24T12:02:17.934Z,1.00
2022-09-24T12:03:22.161Z,1.00
2022-09-24T12:04:18.827Z,1.20
2022-09-24T12:05:17.802Z,1.40
2022-09-24T12:06:17.777Z,1.10
2022-09-24T12:07:17.765Z,0.70
2022-09-24T12:08:18.064Z,0.70
2022-09-24T12:09:17.751Z,1.00
2022-09-24T12:10:17.733Z,0.70
2022-09-24T12:11:17.716Z,1.10
2022-09-24T12:12:17.694Z,1.00
2022-09-24T12:13:18.016Z,1.70
2022-09-24T12:14:17.683Z,1.20
2022-09-24T12:15:17.661Z,1.00
2022-09-24T12:16:17.674Z,1.60
2022-09-24T12:17:17.655Z,0.80
2022-09-24T12:18:18.070Z,1.00
2022-09-24T12:19:17.612Z,1.10
2022-09-24T12:20:17.598Z,1.00
2022-09-24T12:21:17.583Z,1.00
2022-09-24T12:22:17.575Z,0.90
2022-09-24T12:23:17.875Z,0.80
2022-09-24T12:24:17.544Z,1.00
2022-09-24T12:25:17.543Z,0.90
2022-09-24T12:26:17.522Z,2.80
2022-09-24T12:27:17.514Z,0.70
2022-09-24T12:28:17.942Z,0.70
2022-09-24T12:29:17.488Z,0.80
2022-09-24T12:30:17.476Z,0.80
2022-09-24T12:31:17.486Z,0.90
2022-09-24T12:32:17.447Z,1.00
2022-09-24T12:33:17.754Z,0.80
2022-09-24T12:34:17.412Z,1.00
2022-09-24T12:35:17.415Z,0.60
2022-09-24T12:36:17.383Z,1.20
2022-09-24T12:37:17.373Z,1.10
2022-09-24T12:38:17.804Z,0.80
2022-09-24T12:39:17.354Z,0.80
2022-09-24T12:40:17.428Z,0.90
2022-09-24T12:41:17.325Z,0.70
2022-09-24T12:42:17.312Z,0.60
2022-09-24T12:43:17.733Z,0.80
2022-09-24T12:44:21.891Z,0.80
2022-09-24T12:45:18.290Z,0.90
2022-09-24T12:46:17.300Z,1.10
2022-09-24T12:47:17.253Z,1.30
2022-09-24T12:48:17.583Z,0.70
2022-09-24T12:49:17.219Z,1.00
2022-09-24T12:50:17.262Z,0.80
2022-09-24T12:51:17.189Z,1.20
2022-09-24T12:52:17.222Z,0.90
2022-09-24T12:53:17.919Z,0.80
2022-09-24T12:54:17.162Z,0.90
2022-09-24T12:55:17.166Z,0.70
2022-09-24T12:56:17.143Z,0.70
2022-09-24T12:57:20.189Z,1.60
2022-09-24T12:58:18.332Z,1.00
2022-09-24T12:59:17.093Z,0.80
2022-09-24T13:00:17.080Z,1.60
2022-09-24T13:01:17.107Z,0.60
2022-09-24T13:02:17.174Z,0.90
2022-09-24T13:03:17.140Z,0.90
2022-09-24T13:04:17.028Z,0.90
2022-09-24T13:05:17.011Z,0.80
2022-09-24T13:06:17.002Z,0.90
2022-09-24T13:07:16.991Z,1.60
2022-09-24T13:08:17.406Z,0.90
2022-09-24T13:09:16.949Z,1.40
2022-09-24T13:10:16.949Z,0.70
2022-09-24T13:11:16.920Z,1.20
2022-09-24T13:12:16.919Z,1.20
2022-09-24T13:13:16.909Z,1.20
2022-09-24T13:14:17.041Z,1.00
2022-09-24T13:15:16.890Z,0.70
2022-09-24T13:16:16.937Z,1.50
2022-09-24T13:17:16.860Z,1.40
2022-09-24T13:18:16.838Z,1.00